sensor_id;sensor_type;location;lat;lon;timestamp;P1;durP1;ratioP1;P2;durP2;ratioP2
19161;SDS011;9713;48.140;11.530;2023-08-07T00:00:52;2.10;;;0.80;;
19161;SDS011;9713;48.140;11.530;2023-08-07T00:04:36;1.43;;;0.90;;
19161;SDS011;9713;48.140;11.530;2023-08-07T00:08:21;2.40;;;0.90;;
19161;SDS011;9713;48.140;11.530;2023-08-07T00:12:04;1.07;;;0.63;;
19161;SDS011;9713;48.140;11.530;2023-08-07T00:15:47;1.23;;;0.80;;
19161;SDS011;9713;48.140;11.530;2023-08-07T00:19:32;1.40;;;0.90;;
19161;SDS011;9713;48.140;11.530;2023-08-07T00:23:16;2.00;;;0.90;;
19161;SDS011;9713;48.140;11.530;2023-08-07T00:27:04;1.97;;;0.80;;
19161;SDS011;9713;48.140;11.530;2023-08-07T00:30:56;1.37;;;0.90;;
19161;SDS011;9713;48.140;11.530;2023-08-07T00:34:41;1.73;;;0.80;;
19161;SDS011;9713;48.140;11.530;2023-08-07T00:38:25;2.93;;;0.73;;
19161;SDS011;9713;48.140;11.530;2023-08-07T00:42:08;1.93;;;1.00;;
19161;SDS011;9713;48.140;11.530;2023-08-07T00:45:51;1.67;;;1.30;;
19161;SDS011;9713;48.140;11.530;2023-08-07T00:49:34;2.00;;;1.00;;
19161;SDS011;9713;48.140;11.530;2023-08-07T00:53:17;1.63;;;1.23;;
19161;SDS011;9713;48.140;11.530;2023-08-07T00:57:03;3.20;;;1.03;;
19161;SDS011;9713;48.140;11.530;2023-08-07T01:00:52;1.43;;;0.93;;
19161;SDS011;9713;48.140;11.530;2023-08-07T01:04:35;1.20;;;0.93;;
19161;SDS011;9713;48.140;11.530;2023-08-07T01:08:18;3.63;;;1.50;;
19161;SDS011;9713;48.140;11.530;2023-08-07T01:12:10;2.57;;;1.00;;
19161;SDS011;9713;48.140;11.530;2023-08-07T01:15:58;1.27;;;0.90;;
19161;SDS011;9713;48.140;11.530;2023-08-07T01:19:43;1.83;;;1.00;;
19161;SDS011;9713;48.140;11.530;2023-08-07T01:23:28;1.90;;;1.20;;
19161;SDS011;9713;48.140;11.530;2023-08-07T01:27:15;1.40;;;0.90;;
19161;SDS011;9713;48.140;11.530;2023-08-07T01:31:06;1.80;;;0.80;;
19161;SDS011;9713;48.140;11.530;2023-08-07T01:34:54;1.97;;;1.10;;
19161;SDS011;9713;48.140;11.530;2023-08-07T01:38:40;1.00;;;0.83;;
19161;SDS011;9713;48.140;11.530;2023-08-07T01:42:24;2.93;;;1.30;;
19161;SDS011;9713;48.140;11.530;2023-08-07T01:46:07;2.63;;;1.23;;
19161;SDS011;9713;48.140;11.530;2023-08-07T01:49:50;1.93;;;1.07;;
19161;SDS011;9713;48.140;11.530;2023-08-07T01:53:33;3.13;;;1.17;;
19161;SDS011;9713;48.140;11.530;2023-08-07T01:57:17;2.00;;;1.40;;
19161;SDS011;9713;48.140;11.530;2023-08-07T02:01:00;2.90;;;0.97;;
19161;SDS011;9713;48.140;11.530;2023-08-07T02:04:43;3.30;;;1.20;;
19161;SDS011;9713;48.140;11.530;2023-08-07T02:08:26;2.87;;;1.30;;
19161;SDS011;9713;48.140;11.530;2023-08-07T02:12:09;1.93;;;1.30;;
19161;SDS011;9713;48.140;11.530;2023-08-07T02:15:53;3.33;;;1.10;;
19161;SDS011;9713;48.140;11.530;2023-08-07T02:19:36;2.50;;;1.30;;
19161;SDS011;9713;48.140;11.530;2023-08-07T02:23:19;4.37;;;1.20;;
19161;SDS011;9713;48.140;11.530;2023-08-07T02:27:02;2.20;;;1.00;;
19161;SDS011;9713;48.140;11.530;2023-08-07T02:30:45;3.83;;;1.20;;
19161;SDS011;9713;48.140;11.530;2023-08-07T02:34:31;3.87;;;1.20;;
19161;SDS011;9713;48.140;11.530;2023-08-07T02:38:14;3.53;;;1.40;;
19161;SDS011;9713;48.140;11.530;2023-08-07T02:41:57;3.23;;;1.20;;
19161;SDS011;9713;48.140;11.530;2023-08-07T02:45:43;3.73;;;1.40;;
19161;SDS011;9713;48.140;11.530;2023-08-07T02:49:26;2.57;;;1.27;;
19161;SDS011;9713;48.140;11.530;2023-08-07T02:53:10;3.07;;;1.30;;
19161;SDS011;9713;48.140;11.530;2023-08-07T02:56:53;3.37;;;1.43;;
19161;SDS011;9713;48.140;11.530;2023-08-07T03:00:36;2.50;;;1.20;;
19161;SDS011;9713;48.140;11.530;2023-08-07T03:04:19;3.40;;;1.30;;
19161;SDS011;9713;48.140;11.530;2023-08-07T03:08:02;3.50;;;1.40;;
19161;SDS011;9713;48.140;11.530;2023-08-07T03:11:49;3.17;;;1.30;;
19161;SDS011;9713;48.140;11.530;2023-08-07T03:15:32;2.30;;;1.17;;
19161;SDS011;9713;48.140;11.530;2023-08-07T03:19:15;1.53;;;1.10;;
19161;SDS011;9713;48.140;11.530;2023-08-07T03:22:58;2.23;;;1.30;;
19161;SDS011;9713;48.140;11.530;2023-08-07T03:26:41;3.53;;;1.50;;
19161;SDS011;9713;48.140;11.530;2023-08-07T03:30:25;2.57;;;1.20;;
19161;SDS011;9713;48.140;11.530;2023-08-07T03:34:08;2.63;;;1.13;;
19161;SDS011;9713;48.140;11.530;2023-08-07T03:37:50;2.20;;;1.30;;
19161;SDS011;9713;48.140;11.530;2023-08-07T03:41:33;2.13;;;1.40;;
19161;SDS011;9713;48.140;11.530;2023-08-07T03:45:16;2.07;;;1.10;;
19161;SDS011;9713;48.140;11.530;2023-08-07T03:49:00;3.47;;;1.30;;
19161;SDS011;9713;48.140;11.530;2023-08-07T03:52:43;3.23;;;1.17;;
19161;SDS011;9713;48.140;11.530;2023-08-07T03:56:26;2.47;;;1.17;;
19161;SDS011;9713;48.140;11.530;2023-08-07T04:00:09;2.07;;;1.33;;
19161;SDS011;9713;48.140;11.530;2023-08-07T04:03:52;6.10;;;1.40;;
19161;SDS011;9713;48.140;11.530;2023-08-07T04:07:37;3.83;;;1.50;;
19161;SDS011;9713;48.140;11.530;2023-08-07T04:11:20;3.63;;;1.40;;
19161;SDS011;9713;48.140;11.530;2023-08-07T04:15:03;3.17;;;1.47;;
19161;SDS011;9713;48.140;11.530;2023-08-07T04:18:46;2.43;;;1.23;;
19161;SDS011;9713;48.140;11.530;2023-08-07T04:22:29;2.93;;;1.30;;
19161;SDS011;9713;48.140;11.530;2023-08-07T04:26:13;3.30;;;1.30;;
19161;SDS011;9713;48.140;11.530;2023-08-07T04:29:56;2.87;;;1.50;;
19161;SDS011;9713;48.140;11.530;2023-08-07T04:33:39;5.67;;;1.50;;
19161;SDS011;9713;48.140;11.530;2023-08-07T04:37:22;2.97;;;1.47;;
19161;SDS011;9713;48.140;11.530;2023-08-07T04:41:05;3.47;;;1.20;;
19161;SDS011;9713;48.140;11.530;2023-08-07T04:44:49;2.70;;;1.43;;
19161;SDS011;9713;48.140;11.530;2023-08-07T04:48:32;3.17;;;1.37;;
19161;SDS011;9713;48.140;11.530;2023-08-07T04:52:15;2.33;;;1.27;;
19161;SDS011;9713;48.140;11.530;2023-08-07T04:56:06;3.73;;;1.60;;
19161;SDS011;9713;48.140;11.530;2023-08-07T04:59:51;2.97;;;1.30;;
19161;SDS011;9713;48.140;11.530;2023-08-07T05:03:34;9.57;;;1.63;;
19161;SDS011;9713;48.140;11.530;2023-08-07T05:07:17;2.77;;;1.50;;
19161;SDS011;9713;48.140;11.530;2023-08-07T05:11:00;1.80;;;1.43;;
19161;SDS011;9713;48.140;11.530;2023-08-07T05:14:43;3.67;;;1.50;;
19161;SDS011;9713;48.140;11.530;2023-08-07T05:18:27;2.97;;;1.30;;
19161;SDS011;9713;48.140;11.530;2023-08-07T05:22:10;4.27;;;1.60;;
19161;SDS011;9713;48.140;11.530;2023-08-07T05:25:53;2.93;;;1.70;;
19161;SDS011;9713;48.140;11.530;2023-08-07T05:29:35;2.77;;;1.60;;
19161;SDS011;9713;48.140;11.530;2023-08-07T05:33:26;1.77;;;1.37;;
19161;SDS011;9713;48.140;11.530;2023-08-07T05:37:09;3.83;;;1.40;;
19161;SDS011;9713;48.140;11.530;2023-08-07T05:40:52;3.80;;;1.50;;
19161;SDS011;9713;48.140;11.530;2023-08-07T05:44:35;4.13;;;1.80;;
19161;SDS011;9713;48.140;11.530;2023-08-07T05:48:17;3.97;;;1.67;;
19161;SDS011;9713;48.140;11.530;2023-08-07T05:52:02;1.77;;;1.33;;
19161;SDS011;9713;48.140;11.530;2023-08-07T05:55:45;4.23;;;1.83;;
19161;SDS011;9713;48.140;11.530;2023-08-07T05:59:28;2.43;;;1.43;;
19161;SDS011;9713;48.140;11.530;2023-08-07T06:03:11;2.47;;;1.40;;
19161;SDS011;9713;48.140;11.530;2023-08-07T06:06:54;3.53;;;1.43;;
19161;SDS011;9713;48.140;11.530;2023-08-07T06:10:38;2.70;;;1.60;;
19161;SDS011;9713;48.140;11.530;2023-08-07T06:14:21;3.70;;;1.50;;
19161;SDS011;9713;48.140;11.530;2023-08-07T06:18:06;3.20;;;1.50;;
19161;SDS011;9713;48.140;11.530;2023-08-07T06:21:49;3.13;;;1.40;;
19161;SDS011;9713;48.140;11.530;2023-08-07T06:25:32;3.60;;;1.77;;
19161;SDS011;9713;48.140;11.530;2023-08-07T06:29:16;4.33;;;1.63;;
19161;SDS011;9713;48.140;11.530;2023-08-07T06:32:59;3.90;;;1.50;;
19161;SDS011;9713;48.140;11.530;2023-08-07T06:36:42;2.90;;;1.60;;
19161;SDS011;9713;48.140;11.530;2023-08-07T06:40:24;2.83;;;1.50;;
19161;SDS011;9713;48.140;11.530;2023-08-07T06:44:07;2.53;;;1.60;;
19161;SDS011;9713;48.140;11.530;2023-08-07T06:47:52;2.97;;;1.30;;
19161;SDS011;9713;48.140;11.530;2023-08-07T06:51:35;5.53;;;1.40;;
19161;SDS011;9713;48.140;11.530;2023-08-07T06:55:18;5.63;;;1.60;;
19161;SDS011;9713;48.140;11.530;2023-08-07T06:59:00;5.20;;;1.37;;
19161;SDS011;9713;48.140;11.530;2023-08-07T07:02:43;1.47;;;1.13;;
19161;SDS011;9713;48.140;11.530;2023-08-07T07:06:27;1.87;;;1.20;;
19161;SDS011;9713;48.140;11.530;2023-08-07T07:10:10;5.07;;;1.40;;
19161;SDS011;9713;48.140;11.530;2023-08-07T07:13:53;4.50;;;1.30;;
19161;SDS011;9713;48.140;11.530;2023-08-07T07:17:36;2.07;;;1.20;;
19161;SDS011;9713;48.140;11.530;2023-08-07T07:21:19;1.93;;;1.30;;
19161;SDS011;9713;48.140;11.530;2023-08-07T07:25:03;2.63;;;1.37;;
19161;SDS011;9713;48.140;11.530;2023-08-07T07:28:47;2.57;;;1.30;;
19161;SDS011;9713;48.140;11.530;2023-08-07T07:32:29;3.17;;;1.30;;
19161;SDS011;9713;48.140;11.530;2023-08-07T07:36:15;3.47;;;1.30;;
19161;SDS011;9713;48.140;11.530;2023-08-07T07:39:59;2.93;;;1.37;;
19161;SDS011;9713;48.140;11.530;2023-08-07T07:43:43;11.20;;;2.00;;
19161;SDS011;9713;48.140;11.530;2023-08-07T07:47:26;5.63;;;1.70;;
19161;SDS011;9713;48.140;11.530;2023-08-07T07:51:09;3.30;;;1.60;;
19161;SDS011;9713;48.140;11.530;2023-08-07T07:54:54;6.03;;;1.43;;
19161;SDS011;9713;48.140;11.530;2023-08-07T07:58:37;7.47;;;1.60;;
19161;SDS011;9713;48.140;11.530;2023-08-07T08:02:23;4.27;;;1.40;;
19161;SDS011;9713;48.140;11.530;2023-08-07T08:06:07;3.40;;;1.60;;
19161;SDS011;9713;48.140;11.530;2023-08-07T08:09:50;3.83;;;1.40;;
19161;SDS011;9713;48.140;11.530;2023-08-07T08:13:33;3.00;;;1.40;;
19161;SDS011;9713;48.140;11.530;2023-08-07T08:17:20;2.60;;;1.33;;
19161;SDS011;9713;48.140;11.530;2023-08-07T08:21:04;1.90;;;1.07;;
19161;SDS011;9713;48.140;11.530;2023-08-07T08:24:50;1.83;;;1.30;;
19161;SDS011;9713;48.140;11.530;2023-08-07T08:28:33;4.30;;;1.30;;
19161;SDS011;9713;48.140;11.530;2023-08-07T08:32:16;5.33;;;1.37;;
19161;SDS011;9713;48.140;11.530;2023-08-07T08:35:58;3.27;;;1.50;;
19161;SDS011;9713;48.140;11.530;2023-08-07T08:39:43;3.00;;;1.30;;
19161;SDS011;9713;48.140;11.530;2023-08-07T08:43:26;4.03;;;1.43;;
19161;SDS011;9713;48.140;11.530;2023-08-07T08:47:09;2.70;;;1.50;;
19161;SDS011;9713;48.140;11.530;2023-08-07T08:50:53;1.60;;;1.23;;
19161;SDS011;9713;48.140;11.530;2023-08-07T08:54:36;2.27;;;1.50;;
19161;SDS011;9713;48.140;11.530;2023-08-07T08:58:21;3.40;;;1.30;;
19161;SDS011;9713;48.140;11.530;2023-08-07T09:02:05;2.27;;;1.20;;
19161;SDS011;9713;48.140;11.530;2023-08-07T09:05:49;3.10;;;1.20;;
19161;SDS011;9713;48.140;11.530;2023-08-07T09:09:32;2.57;;;1.30;;
19161;SDS011;9713;48.140;11.530;2023-08-07T09:13:15;4.13;;;1.47;;
19161;SDS011;9713;48.140;11.530;2023-08-07T09:17:02;3.03;;;1.50;;
19161;SDS011;9713;48.140;11.530;2023-08-07T09:20:45;3.30;;;1.30;;
19161;SDS011;9713;48.140;11.530;2023-08-07T09:24:28;1.83;;;1.30;;
19161;SDS011;9713;48.140;11.530;2023-08-07T09:28:12;2.43;;;1.20;;
19161;SDS011;9713;48.140;11.530;2023-08-07T09:31:55;2.57;;;1.40;;
19161;SDS011;9713;48.140;11.530;2023-08-07T09:35:39;3.17;;;1.53;;
19161;SDS011;9713;48.140;11.530;2023-08-07T09:39:23;2.27;;;1.40;;
19161;SDS011;9713;48.140;11.530;2023-08-07T09:43:09;5.10;;;1.70;;
19161;SDS011;9713;48.140;11.530;2023-08-07T09:46:52;3.77;;;1.23;;
19161;SDS011;9713;48.140;11.530;2023-08-07T09:50:40;5.80;;;1.50;;
19161;SDS011;9713;48.140;11.530;2023-08-07T09:54:26;2.63;;;1.60;;
19161;SDS011;9713;48.140;11.530;2023-08-07T09:58:08;3.50;;;1.33;;
19161;SDS011;9713;48.140;11.530;2023-08-07T10:01:54;4.40;;;1.57;;
19161;SDS011;9713;48.140;11.530;2023-08-07T10:05:37;3.97;;;1.40;;
19161;SDS011;9713;48.140;11.530;2023-08-07T10:09:22;2.73;;;1.60;;
19161;SDS011;9713;48.140;11.530;2023-08-07T10:13:05;2.57;;;1.33;;
19161;SDS011;9713;48.140;11.530;2023-08-07T10:16:48;3.97;;;1.33;;
19161;SDS011;9713;48.140;11.530;2023-08-07T10:20:32;4.77;;;1.50;;
19161;SDS011;9713;48.140;11.530;2023-08-07T10:24:15;2.10;;;1.33;;
19161;SDS011;9713;48.140;11.530;2023-08-07T10:28:01;3.97;;;1.60;;
19161;SDS011;9713;48.140;11.530;2023-08-07T10:31:44;2.20;;;1.50;;
19161;SDS011;9713;48.140;11.530;2023-08-07T10:35:29;2.23;;;1.50;;
19161;SDS011;9713;48.140;11.530;2023-08-07T10:39:14;1.60;;;1.33;;
19161;SDS011;9713;48.140;11.530;2023-08-07T10:43:13;2.27;;;1.30;;
19161;SDS011;9713;48.140;11.530;2023-08-07T10:46:56;1.70;;;1.17;;
19161;SDS011;9713;48.140;11.530;2023-08-07T10:50:49;2.57;;;1.40;;
19161;SDS011;9713;48.140;11.530;2023-08-07T10:54:36;3.60;;;1.40;;
19161;SDS011;9713;48.140;11.530;2023-08-07T10:58:26;2.27;;;1.20;;
19161;SDS011;9713;48.140;11.530;2023-08-07T11:02:11;2.83;;;1.37;;
19161;SDS011;9713;48.140;11.530;2023-08-07T11:05:57;3.00;;;1.43;;
19161;SDS011;9713;48.140;11.530;2023-08-07T11:09:40;2.57;;;1.30;;
19161;SDS011;9713;48.140;11.530;2023-08-07T11:13:25;2.97;;;1.50;;
19161;SDS011;9713;48.140;11.530;2023-08-07T11:17:12;1.63;;;1.30;;
19161;SDS011;9713;48.140;11.530;2023-08-07T11:20:55;2.03;;;1.50;;
19161;SDS011;9713;48.140;11.530;2023-08-07T11:24:38;2.87;;;1.20;;
19161;SDS011;9713;48.140;11.530;2023-08-07T11:28:21;2.57;;;1.40;;
19161;SDS011;9713;48.140;11.530;2023-08-07T11:32:06;3.77;;;1.23;;
19161;SDS011;9713;48.140;11.530;2023-08-07T11:35:52;1.10;;;1.00;;
19161;SDS011;9713;48.140;11.530;2023-08-07T11:39:41;3.93;;;1.13;;
19161;SDS011;9713;48.140;11.530;2023-08-07T11:43:24;3.53;;;1.37;;
19161;SDS011;9713;48.140;11.530;2023-08-07T11:47:08;1.87;;;1.20;;
19161;SDS011;9713;48.140;11.530;2023-08-07T11:50:51;5.90;;;1.50;;
19161;SDS011;9713;48.140;11.530;2023-08-07T11:54:34;3.10;;;1.17;;
19161;SDS011;9713;48.140;11.530;2023-08-07T11:58:18;3.40;;;1.40;;
19161;SDS011;9713;48.140;11.530;2023-08-07T12:02:09;1.90;;;1.30;;
19161;SDS011;9713;48.140;11.530;2023-08-07T12:05:54;2.80;;;1.40;;
19161;SDS011;9713;48.140;11.530;2023-08-07T12:09:38;1.77;;;1.23;;
19161;SDS011;9713;48.140;11.530;2023-08-07T12:13:23;2.80;;;1.60;;
19161;SDS011;9713;48.140;11.530;2023-08-07T12:17:10;2.83;;;1.50;;
19161;SDS011;9713;48.140;11.530;2023-08-07T12:20:53;4.10;;;1.40;;
19161;SDS011;9713;48.140;11.530;2023-08-07T12:24:40;2.43;;;1.43;;
19161;SDS011;9713;48.140;11.530;2023-08-07T12:28:23;3.80;;;1.40;;
19161;SDS011;9713;48.140;11.530;2023-08-07T12:32:07;2.23;;;1.53;;
19161;SDS011;9713;48.140;11.530;2023-08-07T12:35:52;2.33;;;1.37;;
19161;SDS011;9713;48.140;11.530;2023-08-07T12:39:35;2.60;;;1.40;;
19161;SDS011;9713;48.140;11.530;2023-08-07T12:43:21;2.00;;;1.37;;
19161;SDS011;9713;48.140;11.530;2023-08-07T12:47:09;1.73;;;1.30;;
19161;SDS011;9713;48.140;11.530;2023-08-07T12:50:55;3.67;;;1.20;;
19161;SDS011;9713;48.140;11.530;2023-08-07T12:54:39;3.17;;;1.20;;
19161;SDS011;9713;48.140;11.530;2023-08-07T12:58:22;1.77;;;1.40;;
19161;SDS011;9713;48.140;11.530;2023-08-07T13:02:07;1.43;;;1.20;;
19161;SDS011;9713;48.140;11.530;2023-08-07T13:05:50;2.20;;;1.23;;
19161;SDS011;9713;48.140;11.530;2023-08-07T13:09:34;3.07;;;1.47;;
19161;SDS011;9713;48.140;11.530;2023-08-07T13:13:17;1.70;;;1.13;;
19161;SDS011;9713;48.140;11.530;2023-08-07T13:17:00;3.53;;;1.20;;
19161;SDS011;9713;48.140;11.530;2023-08-07T13:20:45;2.43;;;1.30;;
19161;SDS011;9713;48.140;11.530;2023-08-07T13:24:28;5.10;;;1.20;;
19161;SDS011;9713;48.140;11.530;2023-08-07T13:28:12;3.67;;;1.27;;
19161;SDS011;9713;48.140;11.530;2023-08-07T13:31:55;2.00;;;1.20;;
19161;SDS011;9713;48.140;11.530;2023-08-07T13:35:38;2.27;;;1.30;;
19161;SDS011;9713;48.140;11.530;2023-08-07T13:39:21;3.13;;;1.50;;
19161;SDS011;9713;48.140;11.530;2023-08-07T13:43:04;2.10;;;1.30;;
19161;SDS011;9713;48.140;11.530;2023-08-07T13:46:51;3.40;;;1.30;;
19161;SDS011;9713;48.140;11.530;2023-08-07T13:50:34;3.33;;;1.20;;
19161;SDS011;9713;48.140;11.530;2023-08-07T13:54:18;2.57;;;1.30;;
19161;SDS011;9713;48.140;11.530;2023-08-07T13:58:01;2.20;;;1.30;;
19161;SDS011;9713;48.140;11.530;2023-08-07T14:01:45;1.87;;;1.33;;
19161;SDS011;9713;48.140;11.530;2023-08-07T14:05:29;2.50;;;1.20;;
19161;SDS011;9713;48.140;11.530;2023-08-07T14:09:12;2.47;;;1.00;;
19161;SDS011;9713;48.140;11.530;2023-08-07T14:12:55;2.03;;;1.20;;
19161;SDS011;9713;48.140;11.530;2023-08-07T14:16:38;1.30;;;1.10;;
19161;SDS011;9713;48.140;11.530;2023-08-07T14:20:21;1.80;;;1.00;;
19161;SDS011;9713;48.140;11.530;2023-08-07T14:24:06;2.03;;;1.17;;
19161;SDS011;9713;48.140;11.530;2023-08-07T14:27:49;2.20;;;1.10;;
19161;SDS011;9713;48.140;11.530;2023-08-07T14:31:32;11.77;;;1.37;;
19161;SDS011;9713;48.140;11.530;2023-08-07T14:35:14;1.97;;;1.20;;
19161;SDS011;9713;48.140;11.530;2023-08-07T14:38:57;1.77;;;1.30;;
19161;SDS011;9713;48.140;11.530;2023-08-07T14:42:42;5.07;;;1.37;;
19161;SDS011;9713;48.140;11.530;2023-08-07T14:46:25;4.13;;;1.47;;
19161;SDS011;9713;48.140;11.530;2023-08-07T14:50:08;3.63;;;1.23;;
19161;SDS011;9713;48.140;11.530;2023-08-07T14:53:51;2.67;;;1.40;;
19161;SDS011;9713;48.140;11.530;2023-08-07T14:57:34;3.27;;;1.50;;
19161;SDS011;9713;48.140;11.530;2023-08-07T15:01:18;3.50;;;1.60;;
19161;SDS011;9713;48.140;11.530;2023-08-07T15:05:01;2.70;;;1.40;;
19161;SDS011;9713;48.140;11.530;2023-08-07T15:08:45;2.97;;;1.50;;
19161;SDS011;9713;48.140;11.530;2023-08-07T15:12:27;5.10;;;2.70;;
19161;SDS011;9713;48.140;11.530;2023-08-07T15:16:10;3.00;;;1.60;;
19161;SDS011;9713;48.140;11.530;2023-08-07T15:19:54;3.07;;;2.03;;
19161;SDS011;9713;48.140;11.530;2023-08-07T15:23:37;4.37;;;1.10;;
19161;SDS011;9713;48.140;11.530;2023-08-07T15:27:20;3.73;;;1.63;;
19161;SDS011;9713;48.140;11.530;2023-08-07T15:31:03;4.53;;;1.60;;
19161;SDS011;9713;48.140;11.530;2023-08-07T15:34:46;3.17;;;1.47;;
19161;SDS011;9713;48.140;11.530;2023-08-07T15:38:31;2.83;;;1.20;;
19161;SDS011;9713;48.140;11.530;2023-08-07T15:42:16;2.20;;;1.37;;
19161;SDS011;9713;48.140;11.530;2023-08-07T15:45:59;3.03;;;1.57;;
19161;SDS011;9713;48.140;11.530;2023-08-07T15:49:42;1.80;;;1.40;;
19161;SDS011;9713;48.140;11.530;2023-08-07T15:53:30;3.20;;;1.30;;
19161;SDS011;9713;48.140;11.530;2023-08-07T15:57:13;2.17;;;1.23;;
19161;SDS011;9713;48.140;11.530;2023-08-07T16:00:56;3.00;;;1.40;;
19161;SDS011;9713;48.140;11.530;2023-08-07T16:04:39;3.83;;;1.50;;
19161;SDS011;9713;48.140;11.530;2023-08-07T16:08:21;3.00;;;1.60;;
19161;SDS011;9713;48.140;11.530;2023-08-07T16:12:06;2.77;;;1.50;;
19161;SDS011;9713;48.140;11.530;2023-08-07T16:15:49;2.30;;;1.50;;
19161;SDS011;9713;48.140;11.530;2023-08-07T16:19:31;4.53;;;1.47;;
19161;SDS011;9713;48.140;11.530;2023-08-07T16:23:14;3.67;;;1.40;;
19161;SDS011;9713;48.140;11.530;2023-08-07T16:26:57;2.83;;;1.50;;
19161;SDS011;9713;48.140;11.530;2023-08-07T16:30:42;2.43;;;1.60;;
19161;SDS011;9713;48.140;11.530;2023-08-07T16:34:24;2.23;;;1.50;;
19161;SDS011;9713;48.140;11.530;2023-08-07T16:38:07;3.40;;;1.80;;
19161;SDS011;9713;48.140;11.530;2023-08-07T16:41:50;2.83;;;1.60;;
19161;SDS011;9713;48.140;11.530;2023-08-07T16:45:33;3.60;;;2.10;;
19161;SDS011;9713;48.140;11.530;2023-08-07T16:49:17;3.17;;;1.90;;
19161;SDS011;9713;48.140;11.530;2023-08-07T16:53:00;3.40;;;1.50;;
19161;SDS011;9713;48.140;11.530;2023-08-07T16:56:43;3.93;;;1.70;;
19161;SDS011;9713;48.140;11.530;2023-08-07T17:00:26;2.07;;;1.60;;
19161;SDS011;9713;48.140;11.530;2023-08-07T17:04:09;2.73;;;1.70;;
19161;SDS011;9713;48.140;11.530;2023-08-07T17:07:53;3.93;;;2.10;;
19161;SDS011;9713;48.140;11.530;2023-08-07T17:11:36;3.57;;;1.80;;
19161;SDS011;9713;48.140;11.530;2023-08-07T17:15:21;5.40;;;2.13;;
19161;SDS011;9713;48.140;11.530;2023-08-07T17:19:04;2.57;;;1.80;;
19161;SDS011;9713;48.140;11.530;2023-08-07T17:22:47;2.43;;;1.57;;
19161;SDS011;9713;48.140;11.530;2023-08-07T17:26:31;2.80;;;1.73;;
19161;SDS011;9713;48.140;11.530;2023-08-07T17:30:14;2.13;;;1.60;;
19161;SDS011;9713;48.140;11.530;2023-08-07T17:33:57;2.57;;;1.67;;
19161;SDS011;9713;48.140;11.530;2023-08-07T17:37:40;2.63;;;1.60;;
19161;SDS011;9713;48.140;11.530;2023-08-07T17:41:23;2.67;;;1.70;;
19161;SDS011;9713;48.140;11.530;2023-08-07T17:45:08;3.37;;;1.57;;
19161;SDS011;9713;48.140;11.530;2023-08-07T17:48:53;2.20;;;1.30;;
19161;SDS011;9713;48.140;11.530;2023-08-07T17:52:37;1.57;;;1.20;;
19161;SDS011;9713;48.140;11.530;2023-08-07T17:56:20;3.23;;;1.30;;
19161;SDS011;9713;48.140;11.530;2023-08-07T18:00:05;2.10;;;1.30;;
19161;SDS011;9713;48.140;11.530;2023-08-07T18:03:52;2.40;;;1.50;;
19161;SDS011;9713;48.140;11.530;2023-08-07T18:07:38;2.87;;;1.90;;
19161;SDS011;9713;48.140;11.530;2023-08-07T18:11:22;3.00;;;1.50;;
19161;SDS011;9713;48.140;11.530;2023-08-07T18:15:06;2.70;;;1.47;;
19161;SDS011;9713;48.140;11.530;2023-08-07T18:18:49;2.67;;;1.50;;
19161;SDS011;9713;48.140;11.530;2023-08-07T18:22:34;1.87;;;1.47;;
19161;SDS011;9713;48.140;11.530;2023-08-07T18:26:20;2.97;;;1.20;;
19161;SDS011;9713;48.140;11.530;2023-08-07T18:30:03;1.33;;;1.03;;
19161;SDS011;9713;48.140;11.530;2023-08-07T18:33:47;1.60;;;0.97;;
19161;SDS011;9713;48.140;11.530;2023-08-07T18:37:31;3.23;;;1.10;;
19161;SDS011;9713;48.140;11.530;2023-08-07T18:41:14;1.50;;;0.90;;
19161;SDS011;9713;48.140;11.530;2023-08-07T18:44:58;1.77;;;1.40;;
19161;SDS011;9713;48.140;11.530;2023-08-07T18:48:41;2.77;;;0.90;;
19161;SDS011;9713;48.140;11.530;2023-08-07T18:52:24;1.43;;;1.00;;
19161;SDS011;9713;48.140;11.530;2023-08-07T18:56:09;1.43;;;1.07;;
19161;SDS011;9713;48.140;11.530;2023-08-07T18:59:52;2.50;;;1.33;;
19161;SDS011;9713;48.140;11.530;2023-08-07T19:03:35;3.07;;;1.17;;
19161;SDS011;9713;48.140;11.530;2023-08-07T19:07:19;1.57;;;1.00;;
19161;SDS011;9713;48.140;11.530;2023-08-07T19:11:02;4.07;;;1.10;;
19161;SDS011;9713;48.140;11.530;2023-08-07T19:14:47;1.20;;;1.00;;
19161;SDS011;9713;48.140;11.530;2023-08-07T19:18:30;2.23;;;1.10;;
19161;SDS011;9713;48.140;11.530;2023-08-07T19:22:13;0.90;;;0.80;;
19161;SDS011;9713;48.140;11.530;2023-08-07T19:25:57;1.47;;;1.07;;
19161;SDS011;9713;48.140;11.530;2023-08-07T19:29:40;1.77;;;1.10;;
19161;SDS011;9713;48.140;11.530;2023-08-07T19:33:24;1.20;;;0.97;;
19161;SDS011;9713;48.140;11.530;2023-08-07T19:37:08;2.20;;;1.10;;
19161;SDS011;9713;48.140;11.530;2023-08-07T19:40:51;1.33;;;0.87;;
19161;SDS011;9713;48.140;11.530;2023-08-07T19:44:35;2.77;;;0.90;;
19161;SDS011;9713;48.140;11.530;2023-08-07T19:48:18;2.30;;;1.03;;
19161;SDS011;9713;48.140;11.530;2023-08-07T19:52:04;2.10;;;0.90;;
19161;SDS011;9713;48.140;11.530;2023-08-07T19:55:48;1.40;;;1.00;;
19161;SDS011;9713;48.140;11.530;2023-08-07T19:59:31;1.60;;;0.90;;
19161;SDS011;9713;48.140;11.530;2023-08-07T20:03:16;1.73;;;0.90;;
19161;SDS011;9713;48.140;11.530;2023-08-07T20:07:00;1.30;;;0.90;;
19161;SDS011;9713;48.140;11.530;2023-08-07T20:10:47;1.27;;;1.10;;
19161;SDS011;9713;48.140;11.530;2023-08-07T20:14:30;1.50;;;1.00;;
19161;SDS011;9713;48.140;11.530;2023-08-07T20:18:13;2.50;;;1.27;;
19161;SDS011;9713;48.140;11.530;2023-08-07T20:21:56;1.53;;;1.10;;
19161;SDS011;9713;48.140;11.530;2023-08-07T20:25:39;2.00;;;0.90;;
19161;SDS011;9713;48.140;11.530;2023-08-07T20:29:24;1.60;;;0.90;;
19161;SDS011;9713;48.140;11.530;2023-08-07T20:33:07;1.67;;;0.83;;
19161;SDS011;9713;48.140;11.530;2023-08-07T20:36:52;1.10;;;1.00;;
19161;SDS011;9713;48.140;11.530;2023-08-07T20:40:38;1.43;;;1.00;;
19161;SDS011;9713;48.140;11.530;2023-08-07T20:44:21;1.37;;;0.70;;
19161;SDS011;9713;48.140;11.530;2023-08-07T20:48:05;2.63;;;0.90;;
19161;SDS011;9713;48.140;11.530;2023-08-07T20:51:49;1.37;;;1.00;;
19161;SDS011;9713;48.140;11.530;2023-08-07T20:55:32;1.80;;;0.80;;
19161;SDS011;9713;48.140;11.530;2023-08-07T20:59:14;2.70;;;0.80;;
19161;SDS011;9713;48.140;11.530;2023-08-07T21:02:57;1.97;;;1.10;;
19161;SDS011;9713;48.140;11.530;2023-08-07T21:06:42;1.87;;;1.00;;
19161;SDS011;9713;48.140;11.530;2023-08-07T21:10:24;3.37;;;1.10;;
19161;SDS011;9713;48.140;11.530;2023-08-07T21:14:10;1.27;;;0.80;;
19161;SDS011;9713;48.140;11.530;2023-08-07T21:17:53;1.10;;;0.83;;
19161;SDS011;9713;48.140;11.530;2023-08-07T21:21:38;2.27;;;0.80;;
19161;SDS011;9713;48.140;11.530;2023-08-07T21:25:22;2.10;;;0.90;;
19161;SDS011;9713;48.140;11.530;2023-08-07T21:29:05;0.90;;;0.70;;
19161;SDS011;9713;48.140;11.530;2023-08-07T21:32:49;1.67;;;1.00;;
19161;SDS011;9713;48.140;11.530;2023-08-07T21:36:32;2.13;;;0.80;;
19161;SDS011;9713;48.140;11.530;2023-08-07T21:40:15;1.17;;;0.70;;
19161;SDS011;9713;48.140;11.530;2023-08-07T21:43:59;1.97;;;1.00;;
19161;SDS011;9713;48.140;11.530;2023-08-07T21:47:42;1.33;;;0.70;;
19161;SDS011;9713;48.140;11.530;2023-08-07T21:51:25;1.00;;;0.80;;
19161;SDS011;9713;48.140;11.530;2023-08-07T21:55:10;2.20;;;0.77;;
19161;SDS011;9713;48.140;11.530;2023-08-07T21:58:53;1.20;;;0.90;;
19161;SDS011;9713;48.140;11.530;2023-08-07T22:02:37;1.47;;;0.90;;
19161;SDS011;9713;48.140;11.530;2023-08-07T22:06:20;2.13;;;1.30;;
19161;SDS011;9713;48.140;11.530;2023-08-07T22:10:03;0.87;;;0.77;;
19161;SDS011;9713;48.140;11.530;2023-08-07T22:13:46;1.63;;;0.93;;
19161;SDS011;9713;48.140;11.530;2023-08-07T22:17:29;1.63;;;0.90;;
19161;SDS011;9713;48.140;11.530;2023-08-07T22:21:13;1.03;;;0.80;;
19161;SDS011;9713;48.140;11.530;2023-08-07T22:24:57;2.00;;;0.90;;
19161;SDS011;9713;48.140;11.530;2023-08-07T22:28:39;1.63;;;0.90;;